Time;durP1;ratioP1;P1;durP2;ratioP2;P2;SDS_P1;SDS_P2;PMS_P1;PMS_P2;Temp;Humidity;BMP_temperature;BMP_pressure;BME280_temperature;BME280_humidity;BME280_pressure;Samples;Min_cycle;Max_cycle;Signal;HPM_P1;HPM_P2
2021/05/12 00:00:55;;;;;;;7.80;4.03;;;10.70;99.90;;;9.68;87.93;97115.47;4941757;29;20055;-67
2021/05/12 00:03:42;;;;;;;10.63;4.47;;;10.60;99.90;;;9.47;89.49;97126.81;4941619;29;20123;-67
2021/05/12 00:06:30;;;;;;;10.60;5.35;;;10.70;99.90;;;9.51;89.30;97123.16;4936627;29;20448;-67
2021/05/12 00:09:17;;;;;;;9.90;5.68;;;10.60;99.90;;;9.41;90.04;97120.16;4929261;29;20051;-66
2021/05/12 00:12:07;;;;;;;10.35;5.07;;;10.60;99.90;;;9.37;90.18;97123.78;4945675;28;20051;-67
2021/05/12 00:14:54;;;;;;;8.93;4.35;;;10.60;99.90;;;9.45;89.68;97121.69;4933004;29;20385;-67
2021/05/12 00:17:44;;;;;;;7.40;5.07;;;10.60;99.90;;;9.35;89.97;97123.00;4940336;29;20044;-67
2021/05/12 00:20:31;;;;;;;8.55;4.55;;;10.50;99.90;;;9.46;89.52;97119.94;4926421;29;20036;-67
2021/05/12 00:23:06;;;;;;;8.40;4.07;;;10.50;99.90;;;9.42;89.91;97120.09;4942980;29;20130;-67
2021/05/12 00:25:34;;;;;;;8.95;4.28;;;10.50;99.90;;;9.48;89.41;97121.56;4938662;29;20539;-67
2021/05/12 00:28:21;;;;;;;7.88;4.78;;;10.40;99.90;;;9.41;89.44;97120.16;4930912;29;20043;-67
2021/05/12 00:31:08;;;;;;;9.73;4.93;;;10.50;99.90;;;9.36;89.80;97124.72;4941626;29;20069;-68
2021/05/12 00:33:55;;;;;;;6.70;4.43;;;10.50;99.90;;;9.41;89.99;97131.34;4944803;28;20512;-67
2021/05/12 00:36:42;;;;;;;8.02;5.10;;;10.50;99.90;;;9.44;89.44;97132.97;4943169;29;20079;-67
2021/05/12 00:39:30;;;;;;;7.40;4.38;;;10.50;99.90;;;9.60;89.18;97130.50;4934417;29;20044;-67
2021/05/12 00:42:17;;;;;;;9.18;5.05;;;10.50;99.90;;;9.61;88.83;97127.03;4935721;29;20061;-67
2021/05/12 00:45:06;;;;;;;13.18;5.13;;;10.50;99.90;;;9.61;88.65;97133.03;4935178;29;20050;-67
2021/05/12 00:47:54;;;;;;;15.38;5.55;;;10.50;99.90;;;9.59;88.88;97137.44;4940189;29;20050;-67
2021/05/12 00:50:41;;;;;;;11.02;5.32;;;10.50;99.90;;;9.54;88.77;97131.66;4940726;29;20043;-67
2021/05/12 00:53:29;;;;;;;11.13;5.65;;;10.50;99.90;;;9.58;89.09;97133.19;4943249;29;20051;-67
2021/05/12 00:56:16;;;;;;;9.63;5.85;;;10.50;99.90;;;9.53;89.76;97135.13;4941020;29;20051;-67
2021/05/12 00:59:04;;;;;;;14.23;6.05;;;10.50;99.90;;;9.50;89.64;97140.47;4936282;28;20051;-67
2021/05/12 01:01:51;;;;;;;15.32;5.68;;;10.60;99.90;;;9.46;90.10;97131.13;4928553;29;20039;-67
2021/05/12 01:04:38;;;;;;;11.00;5.40;;;10.70;99.90;;;9.54;89.37;97136.00;4928043;29;20043;-67
2021/05/12 01:07:27;;;;;;;11.48;5.75;;;10.60;99.90;;;9.57;88.74;97141.03;4942625;29;20059;-67
2021/05/12 01:10:14;;;;;;;9.43;5.97;;;10.60;99.90;;;9.50;89.56;97131.84;4928112;29;20055;-67
2021/05/12 01:13:03;;;;;;;9.80;5.75;;;10.60;99.90;;;9.55;89.42;97137.66;4943488;28;20099;-67
2021/05/12 01:15:50;;;;;;;10.95;5.95;;;10.70;99.90;;;9.54;89.33;97136.00;4938493;29;20126;-67
2021/05/12 01:18:32;;;;;;;13.45;6.70;;;10.60;99.90;;;9.62;88.64;97139.91;4925508;29;20098;-67
2021/05/12 01:21:07;;;;;;;10.18;6.45;;;10.60;99.90;;;9.57;89.16;97141.84;4958597;28;20051;-67
2021/05/12 01:23:38;;;;;;;12.85;6.10;;;10.60;99.90;;;9.48;88.85;97141.44;4943204;29;20130;-67
2021/05/12 01:26:26;;;;;;;11.45;7.30;;;10.60;99.90;;;9.55;88.12;97135.91;4949181;29;20046;-67
2021/05/12 01:29:13;;;;;;;14.88;7.35;;;10.60;99.90;;;9.49;88.69;97133.63;4954152;28;20039;-67
2021/05/12 01:32:04;;;;;;;13.95;7.63;;;10.60;99.90;;;9.51;88.75;97138.72;4945746;29;20534;-67
2021/05/12 01:34:51;;;;;;;12.52;7.95;;;10.60;99.90;;;9.41;89.42;97138.28;4947721;28;20535;-67
2021/05/12 01:37:39;;;;;;;12.52;7.95;;;10.70;99.90;;;9.51;88.64;97154.25;4951308;29;20484;-67
2021/05/12 01:40:28;;;;;;;12.23;6.85;;;10.60;99.90;;;9.45;88.91;97147.59;4932964;29;20039;-67
2021/05/12 01:43:15;;;;;;;12.43;6.93;;;10.60;99.90;;;9.47;88.51;97150.97;4949555;28;20488;-67
2021/05/12 01:46:04;;;;;;;10.98;6.88;;;10.60;99.90;;;9.58;88.41;97140.97;4941817;29;20043;-67
2021/05/12 01:48:51;;;;;;;13.32;6.50;;;10.60;99.90;;;9.52;88.65;97145.59;4943568;29;20058;-67
2021/05/12 01:51:40;;;;;;;15.18;8.60;;;10.50;99.90;;;9.38;89.56;97153.97;4931410;29;20047;-67
2021/05/12 01:54:27;;;;;;;14.68;8.70;;;10.60;99.90;;;9.46;89.36;97151.03;4928242;29;20641;-67
2021/05/12 01:57:16;;;;;;;14.07;8.82;;;10.60;99.90;;;9.38;90.01;97146.22;4922884;29;20424;-67
2021/05/12 02:00:23;;;;;;;13.02;8.00;;;10.60;99.90;;;9.58;88.72;97143.56;4923294;29;20040;-67
2021/05/12 02:03:11;;;;;;;18.25;8.20;;;10.60;99.90;;;9.43;88.62;97144.25;4939486;29;20036;-67
2021/05/12 02:05:59;;;;;;;14.90;8.93;;;10.60;99.90;;;9.51;88.71;97134.38;4944748;29;20540;-67
2021/05/12 02:08:46;;;;;;;15.68;10.02;;;10.60;99.90;;;9.41;88.51;97141.72;4934945;29;20039;-67
2021/05/12 02:11:38;;;;;;;14.98;8.05;;;10.60;99.90;;;9.51;88.26;97129.22;4941294;29;20047;-67
2021/05/12 02:14:26;;;;;;;12.43;9.32;;;10.60;99.90;;;9.39;88.91;97140.09;4929750;29;20044;-67
2021/05/12 02:17:14;;;;;;;14.80;8.98;;;10.60;99.90;;;9.56;88.27;97129.00;4946467;28;20035;-67
2021/05/12 02:20:01;;;;;;;14.38;9.48;;;10.50;99.90;;;9.36;88.89;97135.91;4946924;29;20046;-67
2021/05/12 02:22:49;;;;;;;12.98;9.38;;;10.60;99.90;;;9.58;87.49;97133.19;4950389;28;20043;-67
2021/05/12 02:25:37;;;;;;;12.82;10.05;;;10.50;99.90;;;9.47;88.08;97134.59;4942646;28;20527;-67
2021/05/12 02:28:25;;;;;;;12.82;8.57;;;10.50;99.90;;;9.55;87.32;97148.03;4928620;29;20040;-66
2021/05/12 02:31:12;;;;;;;14.77;10.52;;;10.50;99.90;;;9.36;87.83;97141.09;4927726;29;20047;-67
2021/05/12 02:33:59;;;;;;;13.45;10.02;;;10.50;99.90;;;9.35;88.48;97143.72;4941843;28;20547;-67
2021/05/12 02:36:46;;;;;;;16.20;9.93;;;10.60;99.90;;;9.51;88.07;97136.97;4948760;28;20051;-67
2021/05/12 02:39:34;;;;;;;15.80;10.73;;;10.60;99.90;;;9.56;87.22;97137.59;4943997;29;20095;-67
2021/05/12 02:42:22;;;;;;;16.67;11.13;;;10.50;99.90;;;9.48;87.95;97136.25;4948503;29;20051;-67
2021/05/12 02:45:10;;;;;;;18.63;11.00;;;10.50;99.90;;;9.51;87.55;97142.16;4941904;28;20055;-67
2021/05/12 02:48:02;;;;;;;15.90;11.82;;;10.50;99.90;;;9.43;88.71;97137.31;4925583;29;20058;-67
2021/05/12 02:50:49;;;;;;;15.52;12.73;;;10.50;99.90;;;9.32;89.32;97136.94;4941843;28;20520;-67
2021/05/12 02:53:36;;;;;;;21.20;14.10;;;10.50;99.90;;;9.30;89.54;97138.75;4928384;29;20047;-67
2021/05/12 02:56:24;;;;;;;18.17;13.95;;;10.50;99.90;;;9.29;88.90;97137.09;4942266;29;20372;-67
2021/05/12 02:59:11;;;;;;;24.27;15.80;;;10.50;99.90;;;9.20;90.12;97145.28;4938633;29;20051;-67
2021/05/12 03:01:58;;;;;;;20.98;14.98;;;10.60;99.90;;;9.29;89.51;97141.44;4949520;28;20087;-66
2021/05/12 03:04:46;;;;;;;18.55;13.10;;;10.50;99.90;;;9.31;89.11;97147.41;4935535;29;20052;-67
2021/05/12 03:07:34;;;;;;;22.52;17.25;;;10.50;99.90;;;9.19;89.92;97153.94;4926437;29;20222;-67
2021/05/12 03:10:23;;;;;;;26.98;16.88;;;10.50;99.90;;;9.19;89.84;97153.94;4939548;28;20055;-67
2021/05/12 03:13:10;;;;;;;25.13;18.17;;;10.50;99.90;;;9.40;88.70;97142.63;4939775;29;20050;-67
2021/05/12 03:15:57;;;;;;;25.48;16.75;;;10.40;99.90;;;9.28;89.24;97150.09;4941086;28;20043;-67
2021/05/12 03:18:45;;;;;;;27.58;19.73;;;10.40;99.90;;;9.22;90.10;97151.22;4934163;28;20094;-67
2021/05/12 03:21:33;;;;;;;27.42;18.70;;;10.30;99.90;;;9.12;89.77;97155.09;4943152;28;20095;-67
2021/05/12 03:24:21;;;;;;;23.88;17.30;;;10.30;99.90;;;9.17;89.72;97153.19;4942039;28;20059;-67
2021/05/12 03:26:59;;;;;;;27.35;19.70;;;10.30;99.90;;;9.15;90.24;97155.00;4926290;29;20047;-67
2021/05/12 03:29:26;;;;;;;23.40;18.30;;;10.40;99.90;;;9.15;89.92;97157.59;4942324;28;20039;-67
2021/05/12 03:31:53;;;;;;;20.38;16.50;;;10.30;99.90;;;9.17;89.72;97155.78;4943751;29;20385;-67
2021/05/12 03:34:20;;;;;;;22.40;18.25;;;10.30;99.90;;;9.07;90.52;97163.06;4924555;29;20094;-67
2021/05/12 03:37:08;;;;;;;21.75;18.80;;;10.30;99.90;;;9.07;90.26;97160.47;4943431;29;21589;-67
2021/05/12 03:39:55;;;;;;;25.48;19.60;;;10.40;99.90;;;9.00;90.98;97154.72;4945475;29;20453;-67
2021/05/12 03:42:44;;;;;;;22.75;17.75;;;10.40;99.90;;;9.14;90.54;97153.28;4938116;29;20075;-67
2021/05/12 03:45:32;;;;;;;26.50;18.15;;;10.30;99.90;;;9.02;90.49;97159.00;4950497;28;20043;-67
2021/05/12 03:48:19;;;;;;;21.20;16.73;;;10.30;99.90;;;9.04;90.23;97144.25;4946538;28;20080;-67
2021/05/12 03:51:07;;;;;;;29.40;17.85;;;10.20;99.90;;;9.21;89.17;97140.03;4943351;29;20039;-67
2021/05/12 03:53:54;;;;;;;23.48;14.85;;;10.20;99.90;;;9.11;89.27;97143.91;4946451;29;20067;-67
2021/05/12 03:56:41;;;;;;;20.58;15.60;;;10.20;99.90;;;9.10;89.20;97144.84;4945630;28;20193;-67
2021/05/12 03:59:29;;;;;;;23.02;17.02;;;10.10;99.90;;;8.86;90.51;97141.53;4940754;28;20055;-67
2021/05/12 04:02:16;;;;;;;28.08;16.75;;;10.20;99.90;;;8.86;90.28;97138.97;4941623;28;20146;-67
2021/05/12 04:05:04;;;;;;;22.85;17.05;;;10.20;99.90;;;8.92;90.37;97133.53;4936545;28;20213;-67
2021/05/12 04:07:52;;;;;;;22.30;14.85;;;10.20;99.90;;;9.12;89.32;97137.84;4944402;29;20401;-67
2021/05/12 04:10:39;;;;;;;19.80;15.85;;;10.10;99.90;;;8.92;89.84;97136.13;4929675;29;20050;-66
2021/05/12 04:13:26;;;;;;;23.00;17.17;;;10.10;99.90;;;8.85;90.96;97144.19;4943971;29;20469;-67
2021/05/12 04:16:14;;;;;;;23.42;16.20;;;10.10;99.90;;;8.91;90.20;97143.94;4944309;28;20153;-66
2021/05/12 04:19:03;;;;;;;23.55;15.38;;;10.10;99.90;;;8.90;90.64;97152.63;4942516;29;20047;-66
2021/05/12 04:21:50;;;;;;;25.38;17.27;;;10.10;99.90;;;8.98;90.88;97150.53;4940851;28;20158;-66
2021/05/12 04:24:37;;;;;;;19.33;15.32;;;10.10;99.90;;;8.96;90.30;97157.50;4939767;29;20056;-66
2021/05/12 04:27:25;;;;;;;17.40;14.27;;;10.10;99.90;;;9.10;89.45;97157.78;4946258;28;20054;-66
2021/05/12 04:30:17;;;;;;;21.10;16.27;;;10.10;99.90;;;8.88;90.37;97164.78;4941284;28;20103;-66
2021/05/12 04:33:05;;;;;;;25.98;16.35;;;10.10;99.90;;;8.94;90.06;97162.78;4946399;29;20047;-66
2021/05/12 04:35:52;;;;;;;26.15;17.30;;;10.10;99.90;;;8.87;90.09;97179.47;4946082;28;20043;-67
2021/05/12 04:38:51;;;;;;;22.48;14.60;;;10.10;99.90;;;8.95;90.43;97169.63;4936008;29;20138;-66
2021/05/12 04:41:37;;;;;;;23.20;16.92;;;10.20;99.90;;;8.88;90.17;97167.38;4934138;29;20507;-66
2021/05/12 04:44:22;;;;;;;19.98;14.75;;;10.20;99.90;;;8.98;90.19;97169.47;4945964;29;20508;-66
2021/05/12 04:47:04;;;;;;;21.33;15.90;;;10.20;99.90;;;9.03;89.19;97171.03;4945891;28;20039;-66
2021/05/12 04:49:50;;;;;;;19.27;15.25;;;10.20;99.90;;;9.08;89.54;97164.78;4949096;29;20168;-66
2021/05/12 04:52:33;;;;;;;21.33;14.50;;;10.20;99.90;;;9.13;89.31;97165.41;4918168;29;20089;-67
2021/05/12 04:55:20;;;;;;;19.73;13.60;;;10.20;99.90;;;9.34;87.95;97173.16;4937413;29;20392;-66
2021/05/12 04:58:08;;;;;;;22.10;15.75;;;10.20;99.90;;;9.03;89.39;97174.47;4945171;29;20048;-66
2021/05/12 05:00:55;;;;;;;22.20;14.98;;;10.20;99.90;;;9.14;88.55;97180.03;4951510;28;20142;-67
2021/05/12 05:03:43;;;;;;;20.92;15.43;;;10.20;99.90;;;8.95;90.11;97184.31;4943682;28;20168;-67
2021/05/12 05:06:33;;;;;;;21.85;14.82;;;10.30;99.90;;;9.23;88.77;97175.38;4952908;28;20095;-66
2021/05/12 05:09:20;;;;;;;18.48;12.50;;;10.30;99.90;;;9.06;89.10;97178.69;4941112;28;20523;-66
2021/05/12 05:12:07;;;;;;;20.52;14.07;;;10.30;99.90;;;9.11;89.62;97181.91;4938946;29;20785;-67
2021/05/12 05:14:54;;;;;;;22.00;13.18;;;10.40;99.90;;;9.28;89.04;97194.13;4938580;29;20051;-66
2021/05/12 05:17:42;;;;;;;23.90;13.10;;;10.50;99.90;;;9.05;89.56;97195.13;4949466;28;20528;-66
2021/05/12 05:20:30;;;;;;;26.40;13.82;;;10.50;99.90;;;9.04;89.63;97190.84;4946234;29;20103;-66
2021/05/12 05:23:17;;;;;;;21.02;13.68;;;10.50;99.90;;;9.20;88.63;97194.47;4949640;28;20046;-67
2021/05/12 05:25:58;;;;;;;16.83;11.73;;;10.50;99.90;;;9.39;88.14;97190.16;4939216;29;20460;-66
2021/05/12 05:28:24;;;;;;;16.15;12.32;;;10.40;99.90;;;9.14;89.20;97199.91;4941111;29;20091;-66
2021/05/12 05:30:52;;;;;;;25.30;13.13;;;10.50;99.90;;;9.45;88.27;97193.41;4940605;28;20548;-66
2021/05/12 05:33:19;;;;;;;27.38;14.05;;;10.60;99.90;;;9.28;88.28;97194.13;4953279;28;20054;-67
2021/05/12 05:35:47;;;;;;;17.17;13.90;;;10.60;99.90;;;9.29;88.53;97195.81;4940035;29;20396;-66
2021/05/12 05:38:34;;;;;;;20.35;12.65;;;10.70;99.90;;;9.43;86.61;97193.47;4920955;29;20056;-66
2021/05/12 05:41:21;;;;;;;21.50;14.18;;;10.70;99.90;;;9.29;87.92;97190.66;4920677;29;20160;-66
2021/05/12 05:44:09;;;;;;;20.50;12.43;;;10.70;99.90;;;9.43;87.64;97196.06;4934486;29;20055;-66
2021/05/12 05:46:56;;;;;;;22.67;14.50;;;10.70;99.90;;;9.31;88.39;97196.59;4921104;29;20111;-66
2021/05/12 05:49:46;;;;;;;21.60;15.15;;;10.70;99.90;;;9.32;88.50;97195.69;4921975;29;20044;-66
2021/05/12 05:52:33;;;;;;;25.05;13.55;;;10.70;99.90;;;9.23;87.62;97196.91;4946949;29;20055;-67
2021/05/12 05:55:22;;;;;;;19.90;13.75;;;10.60;99.90;;;9.12;88.30;97207.75;4952746;29;20039;-66
2021/05/12 05:58:09;;;;;;;20.92;14.05;;;10.60;99.90;;;8.93;89.02;97214.59;4950005;28;20047;-66
2021/05/12 06:00:56;;;;;;;21.00;14.05;;;10.50;99.90;;;9.17;88.35;97205.81;4949280;29;20051;-67
2021/05/12 06:03:44;;;;;;;23.65;14.88;;;10.50;99.90;;;8.97;89.31;97209.22;4952899;28;20467;-66
2021/05/12 06:06:31;;;;;;;20.80;13.25;;;10.50;99.90;;;9.16;87.74;97198.94;4952793;29;20233;-66
2021/05/12 06:09:19;;;;;;;22.48;12.20;;;10.50;99.90;;;9.16;87.98;97193.75;4934560;29;20044;-66
2021/05/12 06:12:06;;;;;;;24.08;15.02;;;10.30;99.90;;;8.95;88.82;97199.84;4934347;29;20119;-66
2021/05/12 06:14:54;;;;;;;23.83;13.32;;;10.40;99.90;;;9.31;87.32;97201.78;4935370;29;20082;-66
2021/05/12 06:17:59;;;;;;;29.13;14.48;;;10.30;99.90;;;9.22;87.80;97213.38;4933654;29;20048;-66
2021/05/12 06:20:47;;;;;;;24.15;13.80;;;10.40;99.90;;;9.11;88.38;97210.41;4935507;28;20043;-67
2021/05/12 06:23:35;;;;;;;23.85;15.07;;;10.40;99.90;;;9.04;88.03;97217.59;4948315;28;20435;-67
2021/05/12 06:26:23;;;;;;;25.40;14.43;;;10.50;99.90;;;9.04;88.40;97220.16;4950436;28;20051;-66
2021/05/12 06:29:12;;;;;;;26.65;15.60;;;10.50;99.90;;;9.05;88.47;97221.00;4938062;29;20511;-66
2021/05/12 06:31:59;;;;;;;22.40;15.50;;;10.60;99.90;;;9.15;88.23;97212.78;4953840;28;20066;-66
2021/05/12 06:34:46;;;;;;;24.30;15.00;;;10.50;99.90;;;9.36;86.99;97207.59;4951475;29;20185;-66
2021/05/12 06:37:33;;;;;;;20.92;13.90;;;10.40;99.90;;;9.31;87.44;97217.31;4950486;28;20054;-66
2021/05/12 06:40:21;;;;;;;24.70;16.05;;;10.40;99.90;;;9.09;87.78;97215.63;4952610;28;20490;-66
2021/05/12 06:43:08;;;;;;;20.60;14.77;;;10.50;99.90;;;9.11;88.13;97215.56;4952499;29;20043;-66
2021/05/12 06:45:56;;;;;;;21.30;14.07;;;10.50;99.90;;;9.11;87.85;97211.22;4949088;28;20371;-66
2021/05/12 06:48:43;;;;;;;22.92;14.82;;;10.50;99.90;;;9.21;86.74;97220.31;4932936;29;20075;-67
2021/05/12 06:51:31;;;;;;;24.08;14.80;;;10.40;99.90;;;9.07;88.15;97222.63;4933024;28;20055;-67
2021/05/12 06:54:18;;;;;;;25.33;15.18;;;10.40;99.90;;;8.93;89.37;97227.53;4937667;29;20050;-66
2021/05/12 06:57:06;;;;;;;24.20;15.02;;;10.40;99.90;;;9.07;89.16;97226.97;4946728;28;20043;-66
2021/05/12 06:59:53;;;;;;;17.73;14.05;;;10.40;99.90;;;8.91;88.90;97226.75;4951572;28;20035;-66
2021/05/12 07:03:00;;;;;;;21.23;14.43;;;10.40;99.90;;;9.36;87.84;97225.72;4949075;28;20415;-67
2021/05/12 07:05:53;;;;;;;21.98;13.98;;;10.50;99.90;;;9.21;88.36;97215.13;4944277;28;20051;-67
2021/05/12 07:08:40;;;;;;;20.50;14.95;;;10.60;99.90;;;9.19;87.82;97216.06;4927013;29;20081;-66
2021/05/12 07:11:29;;;;;;;18.48;12.38;;;10.70;99.90;;;9.24;87.79;97219.34;4945586;28;20476;-67
2021/05/12 07:14:16;;;;;;;21.73;14.38;;;10.70;99.90;;;9.00;87.51;97229.81;4943221;28;20394;-67
2021/05/12 07:17:03;;;;;;;18.25;13.45;;;10.70;99.90;;;9.68;85.82;97219.13;4942831;28;20115;-67
2021/05/12 07:19:51;;;;;;;19.65;14.20;;;10.70;99.90;;;9.52;87.30;97216.38;4943068;28;20039;-67
2021/05/12 07:22:38;;;;;;;20.85;14.23;;;10.80;99.90;;;9.74;86.79;97221.44;4955886;28;20145;-66
2021/05/12 07:25:25;;;;;;;23.50;14.32;;;10.90;99.90;;;9.58;86.24;97220.47;4951303;28;20419;-67
2021/05/12 07:28:14;;;;;;;28.15;13.63;;;11.00;99.90;;;9.99;85.34;97210.81;4943254;28;20047;-67
2021/05/12 07:31:01;;;;;;;21.27;14.52;;;11.10;99.90;;;9.79;86.05;97208.28;4933273;28;20152;-66
2021/05/12 07:34:04;;;;;;;21.25;13.73;;;11.30;99.90;;;10.20;83.72;97213.31;4936676;28;20051;-66
2021/05/12 07:37:02;;;;;;;21.50;12.50;;;11.40;99.90;;;10.26;81.82;97210.41;4937934;29;20039;-67
2021/05/12 07:39:48;;;;;;;22.17;13.05;;;11.40;99.90;;;9.75;83.89;97210.16;4932178;29;20415;-67
2021/05/12 07:42:35;;;;;;;22.42;14.30;;;11.60;99.90;;;10.27;83.56;97204.31;4946651;29;20399;-67
2021/05/12 07:45:22;;;;;;;18.23;13.02;;;11.70;99.90;;;10.38;82.77;97209.03;4948268;29;20058;-67
2021/05/12 07:48:37;;;;;;;20.25;13.13;;;12.00;99.90;;;10.62;80.36;97207.00;4891403;29;20065;-67
2021/05/12 07:51:23;;;;;;;19.27;13.55;;;12.40;99.90;;;10.83;80.89;97207.69;4884595;29;20064;-67
2021/05/12 07:54:09;;;;;;;15.63;12.02;;;12.60;99.90;;;10.45;81.42;97207.84;4889234;29;20052;-67
2021/05/12 07:56:58;;;;;;;15.55;11.25;;;12.80;99.90;;;11.08;80.20;97199.53;4872103;29;20048;-67
2021/05/12 07:59:43;;;;;;;16.80;10.35;;;13.00;99.90;;;11.55;77.49;97203.22;4895398;29;20060;-67
2021/05/12 08:02:30;;;;;;;15.43;10.82;;;12.90;99.90;;;10.64;80.51;97203.41;4890365;29;20056;-67
2021/05/12 08:05:16;;;;;;;13.23;9.50;;;13.00;99.90;;;10.79;78.61;97211.38;4881628;29;20127;-67
2021/05/12 08:08:02;;;;;;;14.82;9.05;;;13.00;99.90;;;10.70;78.33;97204.88;4877106;29;20056;-67
2021/05/12 08:10:47;;;;;;;18.38;11.45;;;13.10;99.90;;;11.08;77.73;97200.38;4891147;29;20402;-67
2021/05/12 08:13:33;;;;;;;14.23;10.05;;;13.10;99.90;;;11.97;76.62;97201.84;4888647;29;20089;-66
2021/05/12 08:16:19;;;;;;;11.50;9.13;;;13.30;99.90;;;11.93;74.73;97198.59;4886582;29;20055;-66
2021/05/12 08:19:06;;;;;;;16.05;10.23;;;13.60;99.90;;;11.42;77.49;97198.63;4888968;29;20092;-66
2021/05/12 08:21:53;;;;;;;11.27;7.95;;;13.60;99.90;;;11.35;75.30;97199.03;4896562;29;20071;-67
2021/05/12 08:24:41;;;;;;;15.38;7.82;;;13.50;99.90;;;11.35;75.09;97193.84;4923284;28;20110;-66
2021/05/12 08:27:28;;;;;;;16.55;8.68;;;13.60;99.90;;;11.83;74.62;97190.41;4954852;28;20471;-65
2021/05/12 08:30:16;;;;;;;16.73;9.15;;;13.80;99.90;;;11.45;74.35;97193.28;4943562;29;20047;-65
2021/05/12 08:33:03;;;;;;;13.82;9.02;;;14.10;99.90;;;11.81;74.52;97192.25;4939732;29;20055;-65
2021/05/12 08:35:53;;;;;;;12.48;8.82;;;14.30;99.90;;;11.87;72.31;97180.69;4951506;28;20050;-65
2021/05/12 08:38:46;;;;;;;10.93;8.00;;;14.40;99.90;;;12.66;71.59;97179.81;4939586;29;20050;-66
2021/05/12 08:41:35;;;;;;;15.27;8.48;;;14.20;99.90;;;11.96;73.94;97174.19;4948488;29;20043;-65
2021/05/12 08:44:24;;;;;;;14.45;6.63;;;14.40;99.90;;;12.35;70.73;97173.72;4934727;29;20047;-65
2021/05/12 08:47:16;;;;;;;12.93;6.93;;;14.30;99.90;;;11.98;72.04;97175.78;4946482;28;20047;-65
2021/05/12 08:50:05;;;;;;;12.40;7.05;;;14.60;99.90;;;12.23;71.12;97164.84;4955670;29;20062;-66
2021/05/12 08:52:46;;;;;;;11.88;6.32;;;14.90;99.90;;;12.20;71.23;97167.63;4938042;29;20053;-66
2021/05/12 08:55:14;;;;;;;12.13;7.13;;;15.20;99.90;;;12.48;71.64;97166.09;4917751;29;20051;-66
2021/05/12 08:57:41;;;;;;;14.23;7.88;;;15.20;99.90;;;13.04;68.84;97161.09;4945908;29;20591;-66
2021/05/12 09:00:23;;;;;;;11.47;5.37;;;15.30;99.90;;;13.05;67.96;97162.78;4940555;28;20559;-66
2021/05/12 09:02:51;;;;;;;8.00;3.95;;;15.60;99.90;;;12.43;68.73;97170.69;4956865;29;20110;-66
2021/05/12 09:05:19;;;;;;;10.57;4.22;;;15.50;99.90;;;12.89;67.46;97163.69;4938285;29;20047;-66
2021/05/12 09:07:47;;;;;;;9.15;3.88;;;15.30;99.90;;;13.33;66.64;97160.22;4922688;29;20055;-65
2021/05/12 09:10:15;;;;;;;9.75;4.18;;;15.30;99.90;;;13.93;64.92;97153.94;4956211;29;20039;-66
2021/05/12 09:12:43;;;;;;;10.35;3.90;;;15.50;99.90;;;13.75;65.07;97155.94;4951863;29;20400;-66
2021/05/12 09:15:15;;;;;;;10.20;4.47;;;15.90;99.90;;;14.20;64.26;97163.56;4950892;28;20518;-66
2021/05/12 09:17:43;;;;;;;8.32;4.82;;;15.90;99.90;;;13.38;65.22;97168.59;4947339;29;20051;-66
2021/05/12 09:20:19;;;;;;;11.27;5.53;;;15.50;99.90;;;14.40;65.97;97157.91;4911436;29;20087;-65
2021/05/12 09:22:59;;;;;;;13.57;6.63;;;15.60;99.90;;;13.39;65.14;97172.91;4946327;28;20511;-66
2021/05/12 09:25:28;;;;;;;9.25;5.72;;;15.50;99.90;;;13.98;65.94;97154.50;4950718;28;20039;-65
2021/05/12 09:28:18;;;;;;;10.35;6.43;;;15.80;99.90;;;13.19;67.13;97155.00;4933639;29;20123;-66
2021/05/12 09:31:17;;;;;;;10.35;6.95;;;16.10;99.90;;;13.33;66.76;97160.22;4932526;29;20510;-65
2021/05/12 09:34:10;;;;;;;15.10;6.95;;;15.60;99.90;;;14.12;64.02;97161.47;4928923;29;20043;-66
2021/05/12 09:36:57;;;;;;;9.98;5.05;;;15.20;99.90;;;14.28;60.97;97153.50;4941952;29;20374;-65
2021/05/12 09:39:50;;;;;;;15.32;6.85;;;15.40;99.90;;;14.80;62.13;97157.94;4941519;29;20090;-66
2021/05/12 09:42:40;;;;;;;15.48;6.97;;;16.30;99.90;;;15.32;56.91;97152.75;4942355;29;20043;-65
2021/05/12 09:45:30;;;;;;;12.20;6.20;;;17.10;99.90;;;16.64;57.42;97146.84;4919649;29;20047;-66
2021/05/12 09:48:17;;;;;;;14.68;8.27;;;17.60;99.90;;;15.36;59.61;97144.59;4942228;29;20134;-66
2021/05/12 09:50:57;;;;;;;14.80;7.22;;;17.80;99.90;;;16.41;55.87;97145.91;4914303;29;20048;-66
2021/05/12 09:53:24;;;;;;;12.75;7.35;;;17.60;99.90;;;16.95;56.60;97136.72;4940100;29;20062;-66
2021/05/12 09:55:52;;;;;;;11.60;7.60;;;17.40;99.90;;;15.69;58.76;97141.41;4929364;29;20189;-66
2021/05/12 09:58:23;;;;;;;10.73;6.72;;;17.60;99.90;;;17.77;55.23;97126.03;4923079;29;20047;-67
2021/05/12 10:00:52;;;;;;;9.93;7.30;;;18.00;99.90;;;18.73;55.22;97121.84;4940018;29;20056;-67
2021/05/12 10:03:24;;;;;;;9.18;6.57;;;19.40;99.90;;;17.56;50.74;97124.16;4946004;29;20126;-67
2021/05/12 10:05:58;;;;;;;;;;;20.40;99.90;;;18.31;54.00;97133.09;4908625;29;20060;-66
2021/05/12 10:08:36;;;;;;;10.85;6.22;;;20.90;99.90;;;17.03;52.31;97131.72;4938166;29;20367;-66
2021/05/12 10:11:06;;;;;;;11.70;6.53;;;20.50;99.90;;;16.61;53.06;97131.34;4939653;29;20508;-66
2021/05/12 10:13:35;;;;;;;8.73;5.20;;;20.50;99.90;;;18.85;54.25;97120.84;4943538;29;20160;-66
2021/05/12 10:16:06;;;;;;;9.20;4.90;;;21.10;99.90;;;18.16;52.70;97118.59;4924432;29;20154;-66
2021/05/12 10:18:33;;;;;;;15.70;6.57;;;21.10;99.90;;;16.51;53.40;97125.09;4946068;29;20051;-66
2021/05/12 10:21:01;;;;;;;8.93;5.22;;;20.50;99.90;;;15.82;53.45;97123.09;4946409;29;20043;-66
2021/05/12 10:23:29;;;;;;;10.27;4.75;;;19.20;99.90;;;14.35;58.02;97126.03;4947290;28;20142;-65
2021/05/12 10:25:58;;;;;;;9.57;5.20;;;18.00;99.90;;;14.41;57.58;97124.78;4940514;28;20066;-66
2021/05/12 10:28:26;;;;;;;6.03;3.60;;;17.20;99.90;;;15.33;54.57;97108.19;4908526;29;20047;-66
2021/05/12 10:30:55;;;;;;;9.07;4.60;;;16.60;99.90;;;13.78;56.09;97126.22;4948962;28;20039;-66
2021/05/12 10:33:51;;;;;;;8.85;5.25;;;16.60;99.90;;;13.93;58.26;97122.63;4946458;28;20083;-66
2021/05/12 10:36:40;;;;;;;7.20;3.78;;;16.30;99.90;;;13.37;57.73;97121.81;4945139;28;20039;-66
2021/05/12 10:39:27;;;;;;;7.60;4.15;;;15.70;99.90;;;13.83;58.35;97124.16;4925952;28;20040;-66
2021/05/12 10:43:14;;;;;;;5.75;2.25;;;15.50;99.90;;;13.45;59.68;97121.31;4926732;28;20043;-66
2021/05/12 10:46:20;;;;;;;11.02;2.20;;;15.30;99.90;;;13.30;62.18;97115.28;4949135;29;20047;-66
2021/05/12 10:48:50;;;;;;;8.98;2.08;;;15.20;99.90;;;13.21;61.31;97123.63;4938281;29;20074;-66
2021/05/12 10:51:21;;;;;;;7.88;1.90;;;15.00;99.90;;;13.41;60.21;97125.91;4929161;29;20067;-66
2021/05/12 10:53:54;;;;;;;8.45;2.33;;;15.00;99.90;;;13.42;59.90;97126.72;4945896;29;20170;-65
2021/05/12 10:56:43;;;;;;;13.85;1.98;;;14.90;99.90;;;13.49;60.27;97118.44;4945343;29;20062;-65
2021/05/12 10:59:18;;;;;;;6.95;2.10;;;15.00;99.90;;;12.80;63.17;97122.56;4920102;29;20416;-66
2021/05/12 11:01:46;;;;;;;6.07;1.92;;;15.20;99.90;;;13.34;63.11;97107.19;4917079;29;20074;-66
2021/05/12 11:04:15;;;;;;;8.10;2.35;;;15.10;99.90;;;13.57;63.40;97110.97;4944698;29;20547;-66
2021/05/12 11:06:43;;;;;;;4.45;2.20;;;14.90;99.90;;;12.84;64.85;97118.84;4951432;29;21182;-66
2021/05/12 11:09:22;;;;;;;7.38;2.10;;;15.10;99.90;;;12.96;66.26;97112.06;4951375;29;20480;-66
2021/05/12 11:11:49;;;;;;;9.05;2.70;;;15.20;99.90;;;13.81;63.58;97095.53;4934638;29;20054;-66
2021/05/12 11:14:38;;;;;;;5.55;2.00;;;15.20;99.90;;;14.22;63.63;97122.53;4944394;29;20055;-66
2021/05/12 11:17:44;;;;;;;7.95;2.40;;;15.70;99.90;;;13.58;63.64;97120.47;4944619;28;20044;-66
2021/05/12 11:20:31;;;;;;;7.20;2.55;;;16.70;99.90;;;13.94;62.09;97121.72;4918774;29;20063;-66
2021/05/12 11:23:19;;;;;;;6.05;2.45;;;17.60;99.90;;;14.26;61.88;97108.38;4927719;29;20507;-66
2021/05/12 11:26:27;;;;;;;6.55;2.15;;;17.30;99.90;;;13.81;62.46;97126.03;4929065;29;20059;-66
2021/05/12 11:32:09;;;;;;;6.82;3.15;;;17.10;99.90;;;13.79;62.08;97117.44;4932493;29;20047;-66